Time;durP1;ratioP1;P1;durP2;ratioP2;P2;SDS_P1;SDS_P2;PMS_P1;PMS_P2;Temp;Humidity;BMP_temperature;BMP_pressure;BME280_temperature;BME280_humidity;BME280_pressure;Samples;Min_cycle;Max_cycle;Signal;HPM_P1;HPM_P2
2023/05/01 00:02:19;;;;;;;37.67;23.52;;;11.20;99.90;;;;;;5065029;28;20033;-46
2023/05/01 00:04:45;;;;;;;43.83;26.63;;;11.20;99.90;;;;;;5053930;28;20097;-53
2023/05/01 00:07:11;;;;;;;42.22;25.38;;;11.10;99.90;;;;;;5060226;28;20074;-48
2023/05/01 00:09:37;;;;;;;37.03;22.30;;;11.10;99.90;;;;;;5060873;28;20036;-47
2023/05/01 00:12:02;;;;;;;36.53;20.30;;;11.00;99.90;;;;;;5061949;28;20025;-48
2023/05/01 00:14:29;;;;;;;31.10;20.33;;;10.90;99.90;;;;;;5051998;28;20224;-46
2023/05/01 00:16:55;;;;;;;36.10;21.13;;;10.80;99.90;;;;;;5056934;28;20108;-50
2023/05/01 00:19:20;;;;;;;33.58;21.38;;;10.80;99.90;;;;;;5052119;28;20147;-50
2023/05/01 00:21:47;;;;;;;35.10;21.63;;;10.70;99.90;;;;;;5063036;28;20032;-49
2023/05/01 00:24:14;;;;;;;34.80;21.90;;;10.70;99.90;;;;;;5055844;28;20036;-47
2023/05/01 00:26:40;;;;;;;33.20;20.20;;;10.70;99.90;;;;;;5062147;28;20013;-53
2023/05/01 00:29:06;;;;;;;33.15;20.60;;;10.70;99.90;;;;;;5062996;28;20107;-54
2023/05/01 00:31:31;;;;;;;34.72;20.25;;;10.80;99.90;;;;;;5055835;28;20483;-51
2023/05/01 00:33:57;;;;;;;36.10;22.23;;;10.80;99.90;;;;;;5051871;28;20025;-47
2023/05/01 00:36:23;;;;;;;32.05;20.48;;;10.80;99.90;;;;;;5059159;28;20031;-58
2023/05/01 00:38:48;;;;;;;38.20;21.92;;;10.80;99.90;;;;;;5065894;28;20027;-49
2023/05/01 00:41:15;;;;;;;33.72;21.17;;;10.80;99.90;;;;;;5071216;28;20051;-55
2023/05/01 00:43:41;;;;;;;34.45;22.50;;;10.90;99.90;;;;;;5071504;28;20032;-47
2023/05/01 00:46:07;;;;;;;40.03;24.30;;;10.90;99.90;;;;;;5071488;28;20031;-51
2023/05/01 00:48:33;;;;;;;38.10;24.75;;;11.00;99.90;;;;;;5071478;28;20108;-46
2023/05/01 00:51:00;;;;;;;43.55;24.83;;;11.00;99.90;;;;;;5071082;28;20092;-47
2023/05/01 00:53:27;;;;;;;41.40;25.30;;;11.10;99.90;;;;;;5071235;28;20029;-48
2023/05/01 00:55:55;;;;;;;48.50;28.58;;;11.10;99.90;;;;;;5070919;28;20077;-55
2023/05/01 00:58:21;;;;;;;56.15;31.65;;;11.10;99.90;;;;;;5070039;28;20035;-51
2023/05/01 01:00:48;;;;;;;48.95;28.85;;;11.00;99.90;;;;;;5070647;28;20028;-50
2023/05/01 01:03:14;;;;;;;52.20;29.67;;;11.00;99.90;;;;;;5070919;28;20036;-47
2023/05/01 01:05:56;;;;;;;50.92;29.45;;;11.00;99.90;;;;;;5070847;28;20035;-46
2023/05/01 01:08:29;;;;;;;50.28;30.05;;;10.90;99.90;;;;;;5070810;28;20009;-47
2023/05/01 01:11:13;;;;;;;49.53;29.25;;;10.80;99.90;;;;;;5069733;28;20020;-48
2023/05/01 01:14:06;;;;;;;48.03;27.65;;;10.70;99.90;;;;;;5071291;28;20162;-51
2023/05/01 01:16:44;;;;;;;45.55;27.23;;;10.60;99.90;;;;;;5063887;28;20510;-48
2023/05/01 01:19:43;;;;;;;46.83;27.10;;;10.40;99.90;;;;;;5070287;28;20491;-50
2023/05/01 01:22:17;;;;;;;48.38;27.17;;;10.40;99.90;;;;;;5070548;28;20086;-50
2023/05/01 01:25:15;;;;;;;47.38;28.40;;;10.30;99.90;;;;;;5060227;28;20035;-47
2023/05/01 01:28:07;;;;;;;50.55;28.33;;;10.20;99.90;;;;;;5070109;28;20435;-46
2023/05/01 01:30:55;;;;;;;50.05;28.58;;;10.20;99.90;;;;;;5069934;28;20161;-50
2023/05/01 01:33:44;;;;;;;53.40;27.92;;;10.10;99.90;;;;;;5050211;28;20024;-48
2023/05/01 01:36:17;;;;;;;51.33;28.97;;;10.10;99.90;;;;;;5070313;28;20039;-48
2023/05/01 01:38:48;;;;;;;50.05;28.92;;;10.00;99.90;;;;;;5056602;28;20257;-46
2023/05/01 01:41:22;;;;;;;52.25;30.63;;;10.00;99.90;;;;;;5069986;28;20137;-48
2023/05/01 01:43:57;;;;;;;56.72;31.13;;;9.90;99.90;;;;;;5070708;28;20029;-53
2023/05/01 01:46:24;;;;;;;57.67;30.17;;;9.90;99.90;;;;;;5070314;28;20036;-53
2023/05/01 01:48:51;;;;;;;55.53;30.27;;;9.80;99.90;;;;;;5070490;28;20540;-51
2023/05/01 01:51:20;;;;;;;55.67;31.00;;;9.80;99.90;;;;;;5070388;28;20123;-46
2023/05/01 01:53:52;;;;;;;61.63;32.20;;;9.70;99.90;;;;;;5070280;28;20017;-46
2023/05/01 01:56:20;;;;;;;60.05;32.75;;;9.70;99.90;;;;;;5070301;28;20385;-51
2023/05/01 01:58:47;;;;;;;64.55;34.72;;;9.70;99.90;;;;;;5069804;28;20390;-49
2023/05/01 02:01:15;;;;;;;65.30;33.05;;;9.60;99.90;;;;;;5070386;28;20028;-52
2023/05/01 02:03:42;;;;;;;62.28;33.45;;;9.70;99.90;;;;;;5070376;28;20032;-49
2023/05/01 02:06:11;;;;;;;61.65;33.83;;;9.70;99.90;;;;;;5070343;28;20479;-50
2023/05/01 02:08:37;;;;;;;61.10;33.67;;;9.70;99.90;;;;;;5070420;28;20111;-48
2023/05/01 02:11:03;;;;;;;66.03;32.22;;;9.70;99.90;;;;;;5073142;28;20103;-45
2023/05/01 02:13:30;;;;;;;60.58;33.08;;;9.80;99.90;;;;;;5074569;28;20051;-45
2023/05/01 02:15:58;;;;;;;65.70;34.50;;;9.70;99.90;;;;;;5073862;28;20016;-46
2023/05/01 02:18:28;;;;;;;60.20;32.03;;;9.70;99.90;;;;;;5074185;28;20029;-46
2023/05/01 02:20:56;;;;;;;64.63;33.65;;;9.70;99.90;;;;;;5074307;28;20025;-50
2023/05/01 02:23:24;;;;;;;63.20;32.83;;;9.60;99.90;;;;;;5074145;28;20033;-46
2023/05/01 02:25:51;;;;;;;56.67;31.10;;;9.60;99.90;;;;;;5073931;28;20368;-47
2023/05/01 02:28:22;;;;;;;60.20;32.53;;;9.70;99.90;;;;;;5073926;28;20043;-46
2023/05/01 02:30:47;;;;;;;56.40;32.53;;;9.60;99.90;;;;;;5073894;28;20021;-46
2023/05/01 02:33:13;;;;;;;65.85;34.70;;;9.60;99.90;;;;;;5074267;28;20352;-46
2023/05/01 02:35:43;;;;;;;65.85;33.28;;;9.50;99.90;;;;;;5073747;28;20020;-46
2023/05/01 02:38:09;;;;;;;;;;;9.50;99.90;;;;;;5072431;28;20483;-46
2023/05/01 02:40:38;;;;;;;56.92;29.70;;;9.40;99.90;;;;;;5074112;28;19916;-47
2023/05/01 02:43:07;;;;;;;64.43;33.55;;;9.40;99.90;;;;;;5073725;28;20032;-52
2023/05/01 02:45:37;;;;;;;63.97;33.30;;;9.30;99.90;;;;;;5072198;28;20024;-47
2023/05/01 02:48:06;;;;;;;69.93;35.58;;;9.30;99.90;;;;;;5073680;28;20031;-55
2023/05/01 02:50:33;;;;;;;64.63;34.45;;;9.20;99.90;;;;;;5073858;28;20032;-51
2023/05/01 02:53:00;;;;;;;66.57;34.35;;;9.10;99.90;;;;;;5073054;28;20111;-55
2023/05/01 02:55:26;;;;;;;63.42;33.75;;;9.10;99.90;;;;;;5073796;28;20108;-50
2023/05/01 02:57:51;;;;;;;63.45;34.10;;;9.00;99.90;;;;;;5073223;28;20090;-55
2023/05/01 03:00:18;;;;;;;67.38;34.03;;;8.90;99.90;;;;;;5073030;28;20024;-46
2023/05/01 03:02:45;;;;;;;64.63;31.67;;;8.90;99.90;;;;;;5073510;28;20040;-52
2023/05/01 03:05:11;;;;;;;66.25;32.78;;;8.90;99.90;;;;;;5067085;28;20111;-54
2023/05/01 03:07:36;;;;;;;68.40;32.10;;;8.80;99.90;;;;;;5073459;28;20448;-54
2023/05/01 03:10:03;;;;;;;65.05;32.60;;;8.80;99.90;;;;;;5073276;28;20391;-51
2023/05/01 03:12:32;;;;;;;67.07;34.80;;;8.80;99.90;;;;;;5072885;28;20074;-51
2023/05/01 03:14:58;;;;;;;57.72;31.67;;;8.80;99.90;;;;;;5073424;28;20028;-55
2023/05/01 03:17:23;;;;;;;64.35;33.30;;;8.80;99.90;;;;;;5072748;28;20040;-46
2023/05/01 03:19:50;;;;;;;62.63;31.48;;;8.70;99.90;;;;;;5073226;28;20081;-55
2023/05/01 03:22:16;;;;;;;59.17;30.17;;;8.70;99.90;;;;;;5071838;28;20032;-57
2023/05/01 03:24:42;;;;;;;63.05;31.85;;;8.70;99.90;;;;;;5072622;28;20029;-47
2023/05/01 03:27:08;;;;;;;60.28;30.55;;;8.60;99.90;;;;;;5072918;28;20459;-47
2023/05/01 03:29:36;;;;;;;64.22;32.88;;;8.60;99.90;;;;;;5064229;28;20032;-45
2023/05/01 03:32:02;;;;;;;65.07;31.73;;;8.70;99.90;;;;;;5067159;28;20226;-49
2023/05/01 03:34:28;;;;;;;64.55;32.40;;;8.70;99.90;;;;;;5065836;28;20353;-50
2023/05/01 03:36:55;;;;;;;60.53;31.70;;;8.70;99.90;;;;;;5070212;28;20459;-49
2023/05/01 03:39:20;;;;;;;62.63;32.22;;;8.70;99.90;;;;;;5071317;28;20494;-49
2023/05/01 03:41:46;;;;;;;63.58;31.95;;;8.70;99.90;;;;;;5070845;28;20083;-54
2023/05/01 03:44:11;;;;;;;67.82;35.55;;;8.80;99.90;;;;;;5072214;28;20025;-51
2023/05/01 03:46:37;;;;;;;71.80;37.10;;;8.80;99.90;;;;;;5066902;28;20158;-46
2023/05/01 03:49:03;;;;;;;71.70;36.38;;;8.90;99.90;;;;;;5072262;28;20024;-49
2023/05/01 03:51:28;;;;;;;72.10;35.80;;;8.90;99.90;;;;;;5072343;28;20109;-46
2023/05/01 03:53:57;;;;;;;82.30;39.95;;;9.00;99.90;;;;;;5072403;28;20035;-47
2023/05/01 03:56:26;;;;;;;67.15;34.47;;;9.00;99.90;;;;;;5072401;28;20100;-49
2023/05/01 03:58:52;;;;;;;68.60;33.45;;;9.10;99.90;;;;;;5072321;28;20119;-51
2023/05/01 04:01:18;;;;;;;60.15;31.80;;;9.00;99.90;;;;;;5072112;28;20103;-54
2023/05/01 04:03:45;;;;;;;72.82;37.55;;;9.00;99.90;;;;;;5060342;28;20610;-52
2023/05/01 04:06:11;;;;;;;74.30;36.45;;;9.10;99.90;;;;;;5072167;28;20019;-51
2023/05/01 04:08:37;;;;;;;69.40;35.55;;;9.10;99.90;;;;;;5072421;28;20027;-55
2023/05/01 04:11:03;;;;;;;63.90;32.58;;;9.10;99.90;;;;;;5071666;28;20107;-46
2023/05/01 04:13:28;;;;;;;55.80;30.25;;;9.10;99.90;;;;;;5061074;28;20024;-54
2023/05/01 04:15:56;;;;;;;62.85;32.67;;;9.10;99.90;;;;;;5071992;28;20090;-51
2023/05/01 04:18:22;;;;;;;62.03;34.53;;;9.10;99.90;;;;;;5071978;28;20103;-56
2023/05/01 04:20:47;;;;;;;69.93;34.60;;;9.20;99.90;;;;;;5072268;28;20112;-46
2023/05/01 04:23:13;;;;;;;65.43;33.08;;;9.20;99.90;;;;;;5071445;28;20028;-50
2023/05/01 04:25:39;;;;;;;66.40;32.67;;;9.20;99.90;;;;;;5071754;28;20079;-50
2023/05/01 04:28:04;;;;;;;58.17;30.17;;;9.10;99.90;;;;;;5071592;28;20043;-52
2023/05/01 04:30:30;;;;;;;66.53;30.50;;;9.00;99.90;;;;;;5071410;28;20379;-49
2023/05/01 04:32:57;;;;;;;57.17;29.42;;;9.00;99.90;;;;;;5071399;28;20036;-50
2023/05/01 04:35:24;;;;;;;60.15;30.38;;;8.90;99.90;;;;;;5071876;28;20782;-51
2023/05/01 04:37:50;;;;;;;58.83;30.55;;;8.80;99.90;;;;;;5060480;28;20024;-54
2023/05/01 04:40:16;;;;;;;68.28;35.10;;;8.70;99.90;;;;;;5071498;28;20049;-46
2023/05/01 04:42:42;;;;;;;69.75;34.92;;;8.70;99.90;;;;;;5069916;28;20032;-52
2023/05/01 04:45:08;;;;;;;82.22;39.80;;;8.70;99.90;;;;;;5071092;28;20028;-48
2023/05/01 04:47:34;;;;;;;82.75;38.35;;;8.80;99.90;;;;;;5071427;28;20024;-50
2023/05/01 04:50:00;;;;;;;77.57;37.35;;;8.90;99.90;;;;;;5071265;28;20107;-47
2023/05/01 04:52:25;;;;;;;83.82;40.47;;;9.00;99.90;;;;;;5071266;28;20162;-49
2023/05/01 04:54:51;;;;;;;85.28;38.92;;;9.10;99.90;;;;;;5071223;28;20107;-49
2023/05/01 04:57:16;;;;;;;91.80;41.45;;;9.30;99.90;;;;;;5070794;28;20037;-46
2023/05/01 04:59:42;;;;;;;81.35;40.28;;;9.40;99.90;;;;;;5071463;28;20016;-55
2023/05/01 05:02:08;;;;;;;84.00;39.30;;;9.50;99.90;;;;;;5070943;28;20036;-51
2023/05/01 05:04:33;;;;;;;89.05;40.45;;;9.60;99.90;;;;;;5070939;28;20025;-47
2023/05/01 05:06:59;;;;;;;85.35;39.45;;;9.60;99.90;;;;;;5071120;28;20047;-47
2023/05/01 05:09:24;;;;;;;86.00;39.92;;;9.70;99.90;;;;;;5070780;28;20070;-57
2023/05/01 05:11:50;;;;;;;82.75;37.85;;;9.70;99.90;;;;;;5071285;28;20100;-51
2023/05/01 05:14:16;;;;;;;87.85;41.15;;;9.70;99.90;;;;;;5053072;28;20020;-57
2023/05/01 05:16:41;;;;;;;73.68;37.03;;;9.70;99.90;;;;;;5070899;28;20447;-47
2023/05/01 05:19:07;;;;;;;82.28;39.75;;;9.70;99.90;;;;;;5070734;28;20024;-52
2023/05/01 05:21:33;;;;;;;81.00;38.58;;;9.80;99.90;;;;;;5070446;28;20024;-51
2023/05/01 05:23:59;;;;;;;77.55;37.17;;;9.80;99.90;;;;;;5064888;28;20036;-49
2023/05/01 05:26:25;;;;;;;76.72;36.40;;;9.90;99.90;;;;;;5070758;28;20379;-48
2023/05/01 05:28:51;;;;;;;84.47;38.17;;;10.00;99.90;;;;;;5070581;28;20032;-47
2023/05/01 05:31:17;;;;;;;75.63;35.33;;;10.00;99.90;;;;;;5070466;28;20021;-46
2023/05/01 05:33:43;;;;;;;67.32;32.60;;;10.10;99.90;;;;;;5070567;28;20047;-46
2023/05/01 05:36:09;;;;;;;72.15;33.28;;;10.10;99.90;;;;;;5068926;28;20411;-47
2023/05/01 05:38:34;;;;;;;74.40;33.33;;;10.20;99.90;;;;;;5069567;28;20025;-47
2023/05/01 05:41:00;;;;;;;66.93;33.00;;;10.20;99.90;;;;;;5070564;28;20069;-47
2023/05/01 05:43:26;;;;;;;66.80;33.45;;;10.30;99.90;;;;;;5070436;28;20040;-50
2023/05/01 05:45:56;;;;;;;63.38;30.02;;;10.40;99.90;;;;;;5068827;28;20270;-50
2023/05/01 05:48:21;;;;;;;70.47;30.92;;;10.40;99.90;;;;;;5070468;28;20032;-47
2023/05/01 05:50:49;;;;;;;59.83;29.40;;;10.50;99.90;;;;;;5070469;28;20020;-47
2023/05/01 05:53:15;;;;;;;62.90;28.75;;;10.60;99.90;;;;;;5070081;28;20109;-46
2023/05/01 05:55:42;;;;;;;66.68;30.92;;;10.70;99.90;;;;;;5057058;28;20052;-48
2023/05/01 05:58:08;;;;;;;53.80;27.70;;;10.80;99.90;;;;;;5053962;28;20062;-46
2023/05/01 06:00:33;;;;;;;58.67;29.02;;;10.90;99.90;;;;;;5061015;28;20028;-53
2023/05/01 06:02:59;;;;;;;54.05;26.50;;;11.10;99.90;;;;;;5054727;28;20055;-50
2023/05/01 06:05:24;;;;;;;50.35;26.23;;;11.30;99.90;;;;;;5056070;28;20063;-57
2023/05/01 06:07:50;;;;;;;51.45;26.15;;;11.60;99.90;;;;;;5058874;28;20066;-57
2023/05/01 06:10:15;;;;;;;49.05;24.50;;;12.00;99.90;;;;;;5053653;28;20113;-55
2023/05/01 06:12:41;;;;;;;42.35;23.88;;;12.50;99.90;;;;;;5065933;28;20032;-54
2023/05/01 06:15:07;;;;;;;38.72;22.02;;;13.00;99.90;;;;;;5060434;28;20021;-50
2023/05/01 06:17:34;;;;;;;40.42;19.90;;;13.50;99.90;;;;;;5055756;28;20072;-53
2023/05/01 06:20:00;;;;;;;38.55;20.90;;;13.80;99.90;;;;;;5050329;28;20025;-51
2023/05/01 06:22:26;;;;;;;34.50;19.67;;;13.80;99.90;;;;;;5061072;28;20045;-55
2023/05/01 06:24:52;;;;;;;33.97;19.40;;;13.80;99.90;;;;;;5059083;28;20055;-50
2023/05/01 06:27:17;;;;;;;34.67;19.48;;;13.70;99.90;;;;;;5052616;28;20040;-54
2023/05/01 06:29:43;;;;;;;36.45;19.13;;;13.60;99.90;;;;;;5063389;28;20017;-55
2023/05/01 06:32:09;;;;;;;32.75;19.55;;;13.60;99.90;;;;;;5058095;28;20047;-54
2023/05/01 06:34:34;;;;;;;34.42;19.90;;;13.70;99.90;;;;;;5068242;28;20028;-50
2023/05/01 06:37:00;;;;;;;32.55;18.23;;;14.00;99.90;;;;;;5064719;28;20047;-48
2023/05/01 06:39:25;;;;;;;31.10;18.20;;;14.80;99.90;;;;;;5064385;28;20397;-53
2023/05/01 06:41:51;;;;;;;30.23;17.60;;;15.90;99.90;;;;;;5059890;28;20053;-51
2023/05/01 06:44:17;;;;;;;28.55;17.27;;;16.90;99.90;;;;;;5063651;28;20024;-48
2023/05/01 06:46:42;;;;;;;27.23;16.98;;;17.60;99.90;;;;;;5062992;28;20033;-53
2023/05/01 06:49:08;;;;;;;22.70;15.45;;;18.40;99.90;;;;;;5058532;28;20104;-55
2023/05/01 06:51:34;;;;;;;25.17;14.68;;;19.10;99.90;;;;;;5065176;28;20025;-48
2023/05/01 06:54:00;;;;;;;19.73;12.18;;;19.90;99.90;;;;;;5059653;28;20021;-52
2023/05/01 06:56:25;;;;;;;21.58;13.23;;;20.50;99.90;;;;;;5067732;28;20031;-51
2023/05/01 06:58:51;;;;;;;22.50;13.82;;;20.40;99.90;;;;;;5058987;28;20082;-50
2023/05/01 07:01:16;;;;;;;22.00;14.40;;;20.40;99.00;;;;;;5064142;28;20071;-53
2023/05/01 07:03:42;;;;;;;20.33;13.43;;;19.70;97.70;;;;;;5065563;28;20041;-51
2023/05/01 07:06:08;;;;;;;20.65;12.77;;;20.10;99.60;;;;;;5056499;28;20044;-48
2023/05/01 07:08:34;;;;;;;18.10;11.50;;;20.20;98.10;;;;;;5058812;28;20064;-53
2023/05/01 07:10:59;;;;;;;20.80;10.82;;;20.20;98.30;;;;;;5053327;28;20063;-52
2023/05/01 07:13:25;;;;;;;19.65;10.98;;;20.30;97.40;;;;;;5058197;28;20036;-52
2023/05/01 07:15:52;;;;;;;15.02;9.43;;;20.90;95.50;;;;;;5066496;28;20029;-54
2023/05/01 07:18:18;;;;;;;14.70;7.47;;;20.80;94.90;;;;;;5059061;28;20062;-55
2023/05/01 07:20:44;;;;;;;13.90;7.35;;;19.80;95.20;;;;;;5063506;28;20021;-51
2023/05/01 07:23:10;;;;;;;13.07;7.78;;;19.00;96.80;;;;;;5059184;28;20415;-49
2023/05/01 07:25:36;;;;;;;12.32;7.15;;;18.40;99.90;;;;;;5068347;28;20013;-52
2023/05/01 07:28:04;;;;;;;11.68;6.93;;;18.00;99.90;;;;;;5053551;28;20502;-56
2023/05/01 07:30:29;;;;;;;13.63;7.68;;;18.00;99.90;;;;;;5061063;28;20391;-47
2023/05/01 07:32:58;;;;;;;12.25;7.03;;;17.70;99.90;;;;;;5058472;28;20021;-48
2023/05/01 07:35:24;;;;;;;11.90;7.15;;;17.50;99.90;;;;;;5059197;28;20386;-54
2023/05/01 07:37:52;;;;;;;13.35;7.53;;;16.90;99.90;;;;;;5064642;28;20016;-48
2023/05/01 07:40:18;;;;;;;12.65;7.30;;;16.60;99.90;;;;;;5067382;28;20041;-50
2023/05/01 07:42:43;;;;;;;14.60;6.43;;;16.10;99.90;;;;;;5050726;28;20395;-53
2023/05/01 07:45:09;;;;;;;12.45;6.63;;;15.60;99.90;;;;;;5052177;28;20025;-46
2023/05/01 07:47:35;;;;;;;16.85;7.65;;;15.40;99.90;;;;;;5052846;28;20021;-48
2023/05/01 07:50:01;;;;;;;15.02;7.68;;;15.10;99.90;;;;;;5051551;28;20035;-46
2023/05/01 07:52:27;;;;;;;14.25;7.78;;;14.90;99.90;;;;;;5060326;28;20032;-49
2023/05/01 07:54:53;;;;;;;17.00;7.10;;;14.80;99.90;;;;;;5052598;28;20365;-50
2023/05/01 07:57:19;;;;;;;13.65;7.10;;;14.60;99.90;;;;;;5052687;28;20041;-46
2023/05/01 07:59:45;;;;;;;14.52;6.72;;;14.60;99.90;;;;;;5050531;28;20100;-48
2023/05/01 08:02:12;;;;;;;13.57;6.88;;;14.70;99.90;;;;;;5051033;28;20048;-57
2023/05/01 08:04:38;;;;;;;15.20;6.20;;;14.70;99.90;;;;;;5052025;28;20032;-47
2023/05/01 08:07:04;;;;;;;8.82;4.15;;;14.60;99.90;;;;;;5051140;28;20021;-53
2023/05/01 08:09:30;;;;;;;8.57;4.00;;;14.50;99.90;;;;;;5058614;28;20089;-49
2023/05/01 08:11:55;;;;;;;7.97;3.33;;;14.50;99.90;;;;;;5069099;28;20415;-51
2023/05/01 08:14:21;;;;;;;9.07;3.30;;;14.50;99.90;;;;;;5053343;28;20074;-50
2023/05/01 08:16:46;;;;;;;7.70;3.33;;;14.50;99.90;;;;;;5052255;28;20207;-53
2023/05/01 08:19:12;;;;;;;8.20;3.47;;;14.50;99.90;;;;;;5052207;28;20032;-47
2023/05/01 08:21:38;;;;;;;10.55;3.70;;;14.40;99.90;;;;;;5063415;28;20028;-53
2023/05/01 08:24:11;;;;;;;6.18;3.42;;;14.40;99.90;;;;;;5060418;28;20457;-55
2023/05/01 08:26:37;;;;;;;9.27;3.35;;;14.50;99.90;;;;;;5057598;28;20036;-51
2023/05/01 08:29:02;;;;;;;8.88;3.45;;;14.40;99.90;;;;;;5051942;28;20024;-53
2023/05/01 08:31:28;;;;;;;7.97;2.80;;;14.40;99.90;;;;;;5057471;28;20380;-49
2023/05/01 08:33:54;;;;;;;6.03;2.70;;;14.40;99.90;;;;;;5070206;28;20383;-48
2023/05/01 08:36:19;;;;;;;7.10;2.47;;;14.50;99.90;;;;;;5060256;28;20067;-53
2023/05/01 08:38:45;;;;;;;8.63;2.80;;;14.60;99.90;;;;;;5052222;28;20033;-48
2023/05/01 08:41:17;;;;;;;6.75;3.10;;;14.80;99.90;;;;;;5061293;28;20040;-48
2023/05/01 08:43:43;;;;;;;7.95;2.78;;;14.90;99.90;;;;;;5060884;28;20475;-50
2023/05/01 08:46:11;;;;;;;7.68;2.90;;;15.30;99.90;;;;;;5065807;28;20062;-54
2023/05/01 08:48:41;;;;;;;7.75;2.47;;;16.00;99.90;;;;;;5064491;28;20096;-57
2023/05/01 08:51:10;;;;;;;6.40;2.90;;;17.10;99.90;;;;;;5062043;28;20115;-60
2023/05/01 08:53:37;;;;;;;10.77;2.90;;;17.50;99.90;;;;;;5051459;28;20112;-53
2023/05/01 08:56:06;;;;;;;8.13;2.60;;;17.70;99.90;;;;;;5051428;28;20033;-54
2023/05/01 08:58:34;;;;;;;9.05;3.67;;;17.40;99.90;;;;;;5051255;28;20571;-55
2023/05/01 09:01:01;;;;;;;6.82;2.88;;;17.30;99.90;;;;;;5051442;28;20247;-57
2023/05/01 09:03:30;;;;;;;7.03;3.00;;;17.30;99.90;;;;;;5060316;28;20119;-57
2023/05/01 09:05:58;;;;;;;9.98;3.40;;;17.50;99.90;;;;;;5051603;28;20376;-58
2023/05/01 09:08:24;;;;;;;6.80;3.00;;;17.60;99.90;;;;;;5051218;28;20029;-55
2023/05/01 09:10:52;;;;;;;7.00;2.70;;;17.50;99.90;;;;;;5053367;28;20032;-51
2023/05/01 09:13:18;;;;;;;12.35;3.65;;;17.50;99.90;;;;;;5060923;28;20021;-51
2023/05/01 09:15:44;;;;;;;6.05;2.70;;;17.60;99.90;;;;;;5050937;28;20071;-51
2023/05/01 09:18:10;;;;;;;8.55;3.15;;;17.60;99.90;;;;;;5058630;28;20025;-49
2023/05/01 09:20:37;;;;;;;7.57;3.22;;;17.40;99.90;;;;;;5052792;28;20067;-51
2023/05/01 09:23:03;;;;;;;10.20;3.10;;;17.50;99.90;;;;;;5060500;28;20132;-52
2023/05/01 09:25:30;;;;;;;10.30;3.28;;;17.30;99.90;;;;;;5058575;28;20051;-47
2023/05/01 09:27:56;;;;;;;7.60;3.28;;;17.30;99.90;;;;;;5052500;28;20036;-56
2023/05/01 09:30:35;;;;;;;6.22;2.90;;;17.50;99.90;;;;;;5050001;28;20525;-56
2023/05/01 09:33:08;;;;;;;;;;;17.40;99.90;;;;;;5051343;28;20053;-51
2023/05/01 09:35:48;;;;;;;8.30;3.00;;;17.30;99.90;;;;;;5050947;28;20313;-51
2023/05/01 09:38:17;;;;;;;7.00;3.28;;;17.40;99.90;;;;;;5051984;28;20025;-51
2023/05/01 09:40:43;;;;;;;;;;;17.40;99.90;;;;;;5071182;28;20526;-58
2023/05/01 09:43:09;;;;;;;8.65;3.03;;;17.10;99.90;;;;;;5070874;28;19952;-55
2023/05/01 09:45:35;;;;;;;7.35;3.13;;;17.20;99.90;;;;;;5070545;28;20029;-55
2023/05/01 09:48:09;;;;;;;7.97;3.00;;;16.90;99.90;;;;;;5068914;28;20056;-54
2023/05/01 09:50:35;;;;;;;6.93;2.70;;;16.90;99.90;;;;;;5069871;28;20112;-51
2023/05/01 09:53:03;;;;;;;9.20;3.45;;;17.00;99.90;;;;;;5070054;28;20543;-56
2023/05/01 09:55:30;;;;;;;10.02;3.40;;;16.90;99.90;;;;;;5069928;28;20020;-57
2023/05/01 09:57:57;;;;;;;7.47;2.65;;;17.10;99.90;;;;;;5070126;28;20021;-56
2023/05/01 10:00:24;;;;;;;6.43;2.60;;;17.50;99.90;;;;;;5069920;28;20028;-53
2023/05/01 10:02:50;;;;;;;10.10;2.80;;;18.30;99.90;;;;;;5070305;28;20570;-55
2023/05/01 10:05:16;;;;;;;6.50;2.63;;;18.90;99.90;;;;;;5070680;28;20033;-51
2023/05/01 10:07:59;;;;;;;5.95;2.60;;;19.50;99.90;;;;;;5070112;28;20479;-46
2023/05/01 10:10:25;;;;;;;6.60;2.70;;;20.30;99.90;;;;;;5060960;28;20404;-46
2023/05/01 10:12:50;;;;;;;6.68;2.85;;;20.90;99.90;;;;;;5050194;28;20036;-47
2023/05/01 10:15:17;;;;;;;6.07;2.53;;;21.50;97.10;;;;;;5061963;28;20468;-48
2023/05/01 10:17:43;;;;;;;6.15;2.70;;;22.10;95.40;;;;;;5056443;28;20035;-52
2023/05/01 10:20:11;;;;;;;4.68;2.13;;;21.70;91.70;;;;;;5060741;28;20479;-50
2023/05/01 10:22:40;;;;;;;6.68;2.75;;;21.80;91.40;;;;;;5070324;28;20037;-57
2023/05/01 10:25:13;;;;;;;;;;;21.00;91.50;;;;;;5067448;28;20051;-54
2023/05/01 10:27:42;;;;;;;4.07;1.80;;;20.40;92.00;;;;;;5070033;28;19905;-49
2023/05/01 10:30:08;;;;;;;;;;;20.20;92.80;;;;;;5053745;28;20028;-56
2023/05/01 10:32:36;;;;;;;8.02;2.38;;;20.40;95.10;;;;;;5055969;28;20003;-50
2023/05/01 10:35:07;;;;;;;6.18;2.30;;;21.10;99.40;;;;;;5058713;28;20021;-56
2023/05/01 10:37:43;;;;;;;6.55;2.00;;;21.70;92.40;;;;;;5054417;28;20040;-55
2023/05/01 10:40:40;;;;;;;5.35;1.90;;;22.50;90.90;;;;;;5071204;28;20086;-53
2023/05/01 10:43:17;;;;;;;5.82;1.90;;;22.70;89.60;;;;;;5074096;28;20032;-53
2023/05/01 10:45:44;;;;;;;6.65;2.00;;;22.70;83.70;;;;;;5061101;28;20024;-55
2023/05/01 10:48:10;;;;;;;6.45;1.85;;;22.30;83.20;;;;;;5074066;28;20428;-54
2023/05/01 10:51:16;;;;;;;5.10;2.00;;;22.10;86.50;;;;;;5073888;28;20155;-60
2023/05/01 10:53:43;;;;;;;7.32;2.35;;;21.40;86.10;;;;;;5074128;28;20020;-57
2023/05/01 10:56:24;;;;;;;5.93;2.28;;;20.90;88.70;;;;;;5073888;28;20078;-54
2023/05/01 10:58:52;;;;;;;5.90;2.38;;;20.30;91.30;;;;;;5073567;28;20426;-56
2023/05/01 11:01:33;;;;;;;9.48;2.60;;;19.60;92.00;;;;;;5073778;28;20020;-55
2023/05/01 11:04:02;;;;;;;5.15;2.40;;;19.30;94.10;;;;;;5073400;28;20047;-55
2023/05/01 11:06:28;;;;;;;5.32;1.90;;;19.70;95.70;;;;;;5060856;28;20488;-52
2023/05/01 11:08:55;;;;;;;5.70;2.20;;;20.60;94.30;;;;;;5057472;28;20087;-55
2023/05/01 11:11:20;;;;;;;6.20;2.45;;;21.30;91.90;;;;;;5053629;28;20021;-51
2023/05/01 11:14:03;;;;;;;6.78;2.72;;;22.00;88.90;;;;;;5053421;28;20094;-53
2023/05/01 11:16:38;;;;;;;6.85;2.38;;;22.60;87.30;;;;;;5063275;28;20476;-53
2023/05/01 11:19:04;;;;;;;6.00;2.30;;;22.70;85.50;;;;;;5067452;28;20482;-54
2023/05/01 11:21:33;;;;;;;6.22;2.30;;;22.80;87.20;;;;;;5057537;28;20024;-51
2023/05/01 11:23:59;;;;;;;7.93;2.50;;;22.60;84.60;;;;;;5068590;28;20037;-57
2023/05/01 11:26:29;;;;;;;8.00;2.85;;;23.10;87.00;;;;;;5066555;28;20032;-49
2023/05/01 11:28:57;;;;;;;6.07;2.20;;;23.70;81.10;;;;;;5066377;28;20442;-53
2023/05/01 11:31:27;;;;;;;5.68;2.22;;;23.90;76.80;;;;;;5067632;28;20048;-52
2023/05/01 11:33:58;;;;;;;6.88;2.13;;;24.00;77.20;;;;;;5058752;28;20021;-53
2023/05/01 11:36:23;;;;;;;5.68;2.03;;;23.70;77.70;;;;;;5055427;28;20032;-54
2023/05/01 11:38:56;;;;;;;5.72;2.17;;;23.70;79.40;;;;;;5072280;28;20412;-49
2023/05/01 11:41:23;;;;;;;4.40;2.22;;;24.20;80.00;;;;;;5080307;28;20041;-54
2023/05/01 11:43:58;;;;;;;4.32;1.95;;;24.40;77.90;;;;;;5064871;28;20036;-52
2023/05/01 11:46:29;;;;;;;4.60;1.60;;;24.80;76.20;;;;;;5061465;28;20028;-53
2023/05/01 11:49:00;;;;;;;5.55;1.90;;;25.00;69.40;;;;;;5073318;28;20391;-49
2023/05/01 11:51:27;;;;;;;4.25;1.70;;;24.70;71.40;;;;;;5075730;28;20514;-53
2023/05/01 11:54:06;;;;;;;5.00;1.70;;;23.70;72.00;;;;;;5071111;28;20039;-52
2023/05/01 11:56:34;;;;;;;5.47;1.90;;;22.60;73.10;;;;;;5069003;28;20379;-47
2023/05/01 11:59:12;;;;;;;4.47;1.73;;;21.80;78.40;;;;;;5066146;28;20035;-46
2023/05/01 12:01:42;;;;;;;4.87;2.10;;;21.30;81.60;;;;;;5057912;28;20171;-45
2023/05/01 12:04:09;;;;;;;6.03;1.80;;;21.40;85.50;;;;;;5067483;28;20844;-49
2023/05/01 12:06:44;;;;;;;3.38;1.73;;;22.80;86.60;;;;;;5053308;28;20028;-49
2023/05/01 12:09:31;;;;;;;5.00;2.10;;;24.20;79.70;;;;;;5073212;28;20484;-54
2023/05/01 12:11:58;;;;;;;6.70;2.30;;;25.20;80.00;;;;;;5067550;28;20077;-54
2023/05/01 12:14:24;;;;;;;4.88;1.70;;;25.50;71.30;;;;;;5057967;28;20021;-50
2023/05/01 12:16:50;;;;;;;4.68;1.65;;;25.90;73.30;;;;;;5080014;28;20031;-49
2023/05/01 12:19:21;;;;;;;4.57;1.60;;;26.20;67.90;;;;;;5078898;28;20028;-51
2023/05/01 12:21:46;;;;;;;3.25;1.50;;;25.90;67.50;;;;;;5072820;28;20084;-49
2023/05/01 12:24:17;;;;;;;4.70;1.50;;;25.80;68.80;;;;;;5062375;28;20120;-49
2023/05/01 12:26:44;;;;;;;5.25;1.83;;;24.80;68.40;;;;;;5063318;28;20550;-50
2023/05/01 12:29:10;;;;;;;3.13;1.48;;;23.60;67.90;;;;;;5066018;28;20061;-68
2023/05/01 12:31:45;;;;;;;4.75;1.52;;;23.10;72.60;;;;;;5060288;28;20078;-57
2023/05/01 12:34:11;;;;;;;2.70;1.40;;;22.50;74.00;;;;;;5051719;28;20037;-55
2023/05/01 12:36:37;;;;;;;5.32;1.38;;;21.80;73.70;;;;;;5058675;28;20035;-45
2023/05/01 12:39:03;;;;;;;4.30;1.60;;;21.00;75.70;;;;;;5053432;28;20111;-57
2023/05/01 12:41:37;;;;;;;3.80;1.50;;;20.50;78.50;;;;;;5053515;28;20045;-57
2023/05/01 12:44:18;;;;;;;4.93;1.70;;;20.20;79.70;;;;;;5052005;28;20107;-55